Terminal Aerodrome Forecast
Issued by NWS

Home | Current Version | Previous Version | Text Only | Print | Product List | Glossary On
Versions: 1 2 3 4 5 6 7 8 9 10 11 12 13 14 15
000
FTAK31 PANC 212340
TAFATK
TAF
PATK 212340Z 2200/2224 VRB03KT P6SM BKN080
     FM220400 01005KT P6SM -SHSN SCT025 OVC050
     FM220900 01006KT 2SM -SN BR OVC020
     FM221300 VRB03KT 1/2SM -SN FZFG OVC012=

USA.gov is the U.S. government's official web portal to all federal, state and local government web resources and services.